sensor_id;sensor_type;location;lat;lon;timestamp;P1;durP1;ratioP1;P2;durP2;ratioP2
16977;SDS011;8605;52.548;4.918;2023-07-13T00:02:48;7.82;;;2.00;;
16977;SDS011;8605;52.548;4.918;2023-07-13T00:07:53;7.97;;;2.50;;
16977;SDS011;8605;52.548;4.918;2023-07-13T00:12:56;6.77;;;2.60;;
16977;SDS011;8605;52.548;4.918;2023-07-13T00:18:01;8.77;;;2.50;;
16977;SDS011;8605;52.548;4.918;2023-07-13T00:23:04;9.23;;;2.72;;
16977;SDS011;8605;52.548;4.918;2023-07-13T00:28:08;9.17;;;3.00;;
16977;SDS011;8605;52.548;4.918;2023-07-13T00:33:12;8.53;;;2.73;;
16977;SDS011;8605;52.548;4.918;2023-07-13T00:38:19;10.88;;;3.45;;
16977;SDS011;8605;52.548;4.918;2023-07-13T00:43:23;9.63;;;3.27;;
16977;SDS011;8605;52.548;4.918;2023-07-13T00:48:31;10.63;;;3.43;;
16977;SDS011;8605;52.548;4.918;2023-07-13T00:53:35;16.25;;;3.38;;
16977;SDS011;8605;52.548;4.918;2023-07-13T00:58:38;13.18;;;3.58;;
16977;SDS011;8605;52.548;4.918;2023-07-13T01:03:43;11.63;;;3.67;;
16977;SDS011;8605;52.548;4.918;2023-07-13T01:08:47;10.98;;;3.00;;
16977;SDS011;8605;52.548;4.918;2023-07-13T01:13:51;11.15;;;2.83;;
16977;SDS011;8605;52.548;4.918;2023-07-13T01:18:57;9.93;;;2.97;;
16977;SDS011;8605;52.548;4.918;2023-07-13T01:24:04;7.00;;;2.40;;
16977;SDS011;8605;52.548;4.918;2023-07-13T01:29:07;7.13;;;2.30;;
16977;SDS011;8605;52.548;4.918;2023-07-13T01:34:13;4.55;;;2.20;;
16977;SDS011;8605;52.548;4.918;2023-07-13T01:39:17;2.40;;;1.33;;
16977;SDS011;8605;52.548;4.918;2023-07-13T01:44:21;4.68;;;2.08;;
16977;SDS011;8605;52.548;4.918;2023-07-13T01:49:24;4.82;;;1.95;;
16977;SDS011;8605;52.548;4.918;2023-07-13T01:54:29;2.78;;;1.50;;
16977;SDS011;8605;52.548;4.918;2023-07-13T01:59:32;3.50;;;1.20;;
16977;SDS011;8605;52.548;4.918;2023-07-13T02:04:35;2.58;;;1.33;;
16977;SDS011;8605;52.548;4.918;2023-07-13T02:09:40;6.07;;;1.48;;
16977;SDS011;8605;52.548;4.918;2023-07-13T02:14:43;3.33;;;1.20;;
16977;SDS011;8605;52.548;4.918;2023-07-13T02:19:49;10.27;;;1.88;;
16977;SDS011;8605;52.548;4.918;2023-07-13T02:24:54;5.15;;;1.60;;
16977;SDS011;8605;52.548;4.918;2023-07-13T02:29:57;4.17;;;1.50;;
16977;SDS011;8605;52.548;4.918;2023-07-13T02:35:00;4.05;;;1.58;;
16977;SDS011;8605;52.548;4.918;2023-07-13T02:40:06;7.85;;;2.30;;
16977;SDS011;8605;52.548;4.918;2023-07-13T02:45:10;3.85;;;1.60;;
16977;SDS011;8605;52.548;4.918;2023-07-13T02:50:15;5.90;;;1.80;;
16977;SDS011;8605;52.548;4.918;2023-07-13T02:55:19;6.53;;;2.00;;
16977;SDS011;8605;52.548;4.918;2023-07-13T03:00:25;3.83;;;1.50;;
16977;SDS011;8605;52.548;4.918;2023-07-13T03:05:29;7.28;;;2.08;;
16977;SDS011;8605;52.548;4.918;2023-07-13T03:10:34;5.93;;;2.13;;
16977;SDS011;8605;52.548;4.918;2023-07-13T03:15:38;6.05;;;1.80;;
16977;SDS011;8605;52.548;4.918;2023-07-13T03:20:42;3.63;;;1.43;;
16977;SDS011;8605;52.548;4.918;2023-07-13T03:25:48;5.82;;;2.15;;
16977;SDS011;8605;52.548;4.918;2023-07-13T03:30:58;3.27;;;1.80;;
16977;SDS011;8605;52.548;4.918;2023-07-13T03:36:02;7.07;;;2.58;;
16977;SDS011;8605;52.548;4.918;2023-07-13T03:41:07;4.55;;;1.85;;
16977;SDS011;8605;52.548;4.918;2023-07-13T03:46:11;9.52;;;2.55;;
16977;SDS011;8605;52.548;4.918;2023-07-13T03:51:15;7.78;;;2.03;;
16977;SDS011;8605;52.548;4.918;2023-07-13T03:56:20;9.13;;;2.00;;
16977;SDS011;8605;52.548;4.918;2023-07-13T04:01:25;3.70;;;1.73;;
16977;SDS011;8605;52.548;4.918;2023-07-13T04:06:29;5.18;;;2.25;;
16977;SDS011;8605;52.548;4.918;2023-07-13T04:11:34;7.03;;;1.98;;
16977;SDS011;8605;52.548;4.918;2023-07-13T04:16:38;5.82;;;2.50;;
16977;SDS011;8605;52.548;4.918;2023-07-13T04:21:41;10.90;;;2.93;;
16977;SDS011;8605;52.548;4.918;2023-07-13T04:26:46;6.27;;;2.37;;
16977;SDS011;8605;52.548;4.918;2023-07-13T04:31:49;11.60;;;2.55;;
16977;SDS011;8605;52.548;4.918;2023-07-13T04:36:53;8.20;;;2.37;;
16977;SDS011;8605;52.548;4.918;2023-07-13T04:41:57;6.50;;;2.53;;
16977;SDS011;8605;52.548;4.918;2023-07-13T04:47:01;9.77;;;3.55;;
16977;SDS011;8605;52.548;4.918;2023-07-13T04:52:06;8.80;;;3.20;;
16977;SDS011;8605;52.548;4.918;2023-07-13T04:57:11;6.25;;;2.50;;
16977;SDS011;8605;52.548;4.918;2023-07-13T05:02:14;7.90;;;2.10;;
16977;SDS011;8605;52.548;4.918;2023-07-13T05:07:19;4.07;;;2.15;;
16977;SDS011;8605;52.548;4.918;2023-07-13T05:12:25;10.32;;;2.90;;
16977;SDS011;8605;52.548;4.918;2023-07-13T05:17:28;5.72;;;2.60;;
16977;SDS011;8605;52.548;4.918;2023-07-13T05:22:32;4.50;;;2.05;;
16977;SDS011;8605;52.548;4.918;2023-07-13T05:27:38;4.27;;;2.30;;
16977;SDS011;8605;52.548;4.918;2023-07-13T05:32:41;6.30;;;2.80;;
16977;SDS011;8605;52.548;4.918;2023-07-13T05:37:45;4.68;;;2.10;;
16977;SDS011;8605;52.548;4.918;2023-07-13T05:42:49;3.90;;;2.10;;
16977;SDS011;8605;52.548;4.918;2023-07-13T05:47:52;5.70;;;2.05;;
16977;SDS011;8605;52.548;4.918;2023-07-13T05:52:56;7.32;;;3.00;;
16977;SDS011;8605;52.548;4.918;2023-07-13T05:58:00;8.73;;;2.80;;
16977;SDS011;8605;52.548;4.918;2023-07-13T06:03:04;6.25;;;3.00;;
16977;SDS011;8605;52.548;4.918;2023-07-13T06:08:08;7.23;;;2.60;;
16977;SDS011;8605;52.548;4.918;2023-07-13T06:13:12;7.13;;;2.30;;
16977;SDS011;8605;52.548;4.918;2023-07-13T06:18:16;7.78;;;2.00;;
16977;SDS011;8605;52.548;4.918;2023-07-13T06:23:19;6.65;;;2.40;;
16977;SDS011;8605;52.548;4.918;2023-07-13T06:28:24;5.60;;;2.20;;
16977;SDS011;8605;52.548;4.918;2023-07-13T06:33:27;8.40;;;2.42;;
16977;SDS011;8605;52.548;4.918;2023-07-13T06:38:31;4.50;;;2.15;;
16977;SDS011;8605;52.548;4.918;2023-07-13T06:43:36;3.00;;;1.60;;
16977;SDS011;8605;52.548;4.918;2023-07-13T06:48:39;5.30;;;2.40;;
16977;SDS011;8605;52.548;4.918;2023-07-13T06:53:42;6.00;;;2.40;;
16977;SDS011;8605;52.548;4.918;2023-07-13T06:58:47;4.32;;;2.42;;
16977;SDS011;8605;52.548;4.918;2023-07-13T07:03:50;7.47;;;2.80;;
16977;SDS011;8605;52.548;4.918;2023-07-13T07:08:53;9.20;;;2.40;;
16977;SDS011;8605;52.548;4.918;2023-07-13T07:13:58;4.05;;;1.80;;
16977;SDS011;8605;52.548;4.918;2023-07-13T07:19:01;6.50;;;1.98;;
16977;SDS011;8605;52.548;4.918;2023-07-13T07:24:05;5.53;;;2.10;;
16977;SDS011;8605;52.548;4.918;2023-07-13T07:29:11;4.47;;;2.63;;
16977;SDS011;8605;52.548;4.918;2023-07-13T07:34:19;6.53;;;2.00;;
16977;SDS011;8605;52.548;4.918;2023-07-13T07:39:23;9.63;;;2.30;;
16977;SDS011;8605;52.548;4.918;2023-07-13T07:44:27;4.33;;;2.27;;
16977;SDS011;8605;52.548;4.918;2023-07-13T07:49:31;3.08;;;1.63;;
16977;SDS011;8605;52.548;4.918;2023-07-13T07:54:34;5.35;;;2.25;;
16977;SDS011;8605;52.548;4.918;2023-07-13T07:59:42;5.23;;;2.10;;
16977;SDS011;8605;52.548;4.918;2023-07-13T08:05:14;6.03;;;1.70;;
16977;SDS011;8605;52.548;4.918;2023-07-13T08:10:21;7.57;;;1.73;;
16977;SDS011;8605;52.548;4.918;2023-07-13T08:15:25;6.55;;;2.10;;
16977;SDS011;8605;52.548;4.918;2023-07-13T08:20:29;3.67;;;1.90;;
16977;SDS011;8605;52.548;4.918;2023-07-13T08:25:32;5.03;;;2.25;;
16977;SDS011;8605;52.548;4.918;2023-07-13T08:30:38;5.20;;;2.05;;
16977;SDS011;8605;52.548;4.918;2023-07-13T08:35:41;6.70;;;1.88;;
16977;SDS011;8605;52.548;4.918;2023-07-13T08:40:45;6.65;;;2.30;;
16977;SDS011;8605;52.548;4.918;2023-07-13T08:45:55;4.03;;;1.90;;
16977;SDS011;8605;52.548;4.918;2023-07-13T08:51:25;3.72;;;2.10;;
16977;SDS011;8605;52.548;4.918;2023-07-13T08:56:32;5.38;;;2.10;;
16977;SDS011;8605;52.548;4.918;2023-07-13T09:01:45;5.47;;;2.08;;
16977;SDS011;8605;52.548;4.918;2023-07-13T09:06:59;4.63;;;1.85;;
16977;SDS011;8605;52.548;4.918;2023-07-13T09:12:08;5.88;;;1.63;;
16977;SDS011;8605;52.548;4.918;2023-07-13T09:17:17;5.73;;;1.90;;
16977;SDS011;8605;52.548;4.918;2023-07-13T09:22:21;5.27;;;2.00;;
16977;SDS011;8605;52.548;4.918;2023-07-13T09:27:27;6.88;;;2.80;;
16977;SDS011;8605;52.548;4.918;2023-07-13T09:32:34;3.67;;;2.20;;
16977;SDS011;8605;52.548;4.918;2023-07-13T09:37:39;5.47;;;2.30;;
16977;SDS011;8605;52.548;4.918;2023-07-13T09:42:43;10.27;;;2.55;;
16977;SDS011;8605;52.548;4.918;2023-07-13T09:47:47;3.60;;;1.90;;
16977;SDS011;8605;52.548;4.918;2023-07-13T09:52:51;5.87;;;2.20;;
16977;SDS011;8605;52.548;4.918;2023-07-13T09:57:56;3.22;;;1.83;;
16977;SDS011;8605;52.548;4.918;2023-07-13T10:03:02;7.72;;;2.25;;
16977;SDS011;8605;52.548;4.918;2023-07-13T10:08:14;4.63;;;1.90;;
16977;SDS011;8605;52.548;4.918;2023-07-13T10:13:23;7.85;;;2.17;;
16977;SDS011;8605;52.548;4.918;2023-07-13T10:18:31;2.78;;;2.10;;
16977;SDS011;8605;52.548;4.918;2023-07-13T10:23:41;5.00;;;1.98;;
16977;SDS011;8605;52.548;4.918;2023-07-13T10:28:46;4.97;;;2.25;;
16977;SDS011;8605;52.548;4.918;2023-07-13T10:33:53;6.25;;;2.28;;
16977;SDS011;8605;52.548;4.918;2023-07-13T10:38:57;6.23;;;2.40;;
16977;SDS011;8605;52.548;4.918;2023-07-13T10:44:04;5.73;;;2.27;;
16977;SDS011;8605;52.548;4.918;2023-07-13T10:49:09;5.17;;;2.20;;
16977;SDS011;8605;52.548;4.918;2023-07-13T10:54:17;4.45;;;1.92;;
16977;SDS011;8605;52.548;4.918;2023-07-13T10:59:24;4.68;;;2.10;;
16977;SDS011;8605;52.548;4.918;2023-07-13T11:04:39;6.30;;;2.42;;
16977;SDS011;8605;52.548;4.918;2023-07-13T11:09:43;5.22;;;1.88;;
16977;SDS011;8605;52.548;4.918;2023-07-13T11:15:12;2.47;;;1.20;;
16977;SDS011;8605;52.548;4.918;2023-07-13T11:20:21;7.10;;;1.85;;
16977;SDS011;8605;52.548;4.918;2023-07-13T11:25:27;5.00;;;1.60;;
16977;SDS011;8605;52.548;4.918;2023-07-13T11:30:34;5.67;;;1.90;;
16977;SDS011;8605;52.548;4.918;2023-07-13T11:35:42;5.00;;;1.67;;
16977;SDS011;8605;52.548;4.918;2023-07-13T11:40:50;6.10;;;1.60;;
16977;SDS011;8605;52.548;4.918;2023-07-13T11:45:57;4.45;;;2.28;;
16977;SDS011;8605;52.548;4.918;2023-07-13T11:51:02;2.92;;;1.83;;
16977;SDS011;8605;52.548;4.918;2023-07-13T11:56:07;3.90;;;1.77;;
16977;SDS011;8605;52.548;4.918;2023-07-13T12:01:15;3.40;;;1.77;;
16977;SDS011;8605;52.548;4.918;2023-07-13T12:06:25;5.87;;;1.87;;
16977;SDS011;8605;52.548;4.918;2023-07-13T12:11:34;4.40;;;1.88;;
16977;SDS011;8605;52.548;4.918;2023-07-13T12:16:42;6.10;;;1.77;;
16977;SDS011;8605;52.548;4.918;2023-07-13T12:21:47;5.30;;;1.80;;
16977;SDS011;8605;52.548;4.918;2023-07-13T12:26:51;4.30;;;1.45;;
16977;SDS011;8605;52.548;4.918;2023-07-13T12:31:56;7.60;;;2.70;;
16977;SDS011;8605;52.548;4.918;2023-07-13T12:37:01;5.33;;;2.13;;
16977;SDS011;8605;52.548;4.918;2023-07-13T12:42:16;4.53;;;1.60;;
16977;SDS011;8605;52.548;4.918;2023-07-13T12:47:25;5.28;;;1.95;;
16977;SDS011;8605;52.548;4.918;2023-07-13T12:52:31;5.10;;;2.20;;
16977;SDS011;8605;52.548;4.918;2023-07-13T12:57:39;4.82;;;1.95;;
16977;SDS011;8605;52.548;4.918;2023-07-13T13:02:50;5.50;;;2.17;;
16977;SDS011;8605;52.548;4.918;2023-07-13T13:07:55;11.27;;;2.50;;
16977;SDS011;8605;52.548;4.918;2023-07-13T13:12:58;5.50;;;2.60;;
16977;SDS011;8605;52.548;4.918;2023-07-13T13:18:02;5.97;;;2.45;;
16977;SDS011;8605;52.548;4.918;2023-07-13T13:23:08;3.70;;;2.23;;
16977;SDS011;8605;52.548;4.918;2023-07-13T13:28:14;6.03;;;2.30;;
16977;SDS011;8605;52.548;4.918;2023-07-13T13:33:19;4.28;;;2.22;;
16977;SDS011;8605;52.548;4.918;2023-07-13T13:38:26;4.88;;;2.15;;
16977;SDS011;8605;52.548;4.918;2023-07-13T13:43:30;5.28;;;2.28;;
16977;SDS011;8605;52.548;4.918;2023-07-13T13:48:34;7.70;;;2.20;;
16977;SDS011;8605;52.548;4.918;2023-07-13T13:53:42;7.43;;;2.38;;
16977;SDS011;8605;52.548;4.918;2023-07-13T13:58:47;3.25;;;2.30;;
16977;SDS011;8605;52.548;4.918;2023-07-13T14:03:50;6.50;;;2.45;;
16977;SDS011;8605;52.548;4.918;2023-07-13T14:08:55;5.97;;;2.47;;
16977;SDS011;8605;52.548;4.918;2023-07-13T14:13:58;7.28;;;2.65;;
16977;SDS011;8605;52.548;4.918;2023-07-13T14:24:30;5.03;;;2.67;;
16977;SDS011;8605;52.548;4.918;2023-07-13T14:29:34;3.80;;;2.65;;
16977;SDS011;8605;52.548;4.918;2023-07-13T14:34:37;6.93;;;3.00;;
16977;SDS011;8605;52.548;4.918;2023-07-13T14:39:45;5.88;;;2.65;;
16977;SDS011;8605;52.548;4.918;2023-07-13T14:44:49;6.03;;;2.20;;
16977;SDS011;8605;52.548;4.918;2023-07-13T14:49:53;5.30;;;2.70;;
16977;SDS011;8605;52.548;4.918;2023-07-13T14:54:57;6.40;;;2.65;;
16977;SDS011;8605;52.548;4.918;2023-07-13T15:00:00;5.00;;;2.60;;
16977;SDS011;8605;52.548;4.918;2023-07-13T15:05:05;5.47;;;2.60;;
16977;SDS011;8605;52.548;4.918;2023-07-13T15:10:18;7.25;;;2.50;;
16977;SDS011;8605;52.548;4.918;2023-07-13T15:15:22;6.05;;;2.55;;
16977;SDS011;8605;52.548;4.918;2023-07-13T15:20:26;5.40;;;2.92;;
16977;SDS011;8605;52.548;4.918;2023-07-13T15:25:36;4.65;;;2.75;;
16977;SDS011;8605;52.548;4.918;2023-07-13T15:30:40;9.83;;;3.30;;
16977;SDS011;8605;52.548;4.918;2023-07-13T15:35:45;6.70;;;2.95;;
16977;SDS011;8605;52.548;4.918;2023-07-13T15:40:51;4.57;;;2.20;;
16977;SDS011;8605;52.548;4.918;2023-07-13T15:45:55;3.95;;;2.38;;
16977;SDS011;8605;52.548;4.918;2023-07-13T15:51:00;7.10;;;3.00;;
16977;SDS011;8605;52.548;4.918;2023-07-13T15:56:09;5.23;;;3.40;;
16977;SDS011;8605;52.548;4.918;2023-07-13T16:01:20;5.32;;;2.53;;
16977;SDS011;8605;52.548;4.918;2023-07-13T16:06:25;4.05;;;2.38;;
16977;SDS011;8605;52.548;4.918;2023-07-13T16:11:33;3.88;;;2.00;;
16977;SDS011;8605;52.548;4.918;2023-07-13T16:16:37;6.65;;;3.17;;
16977;SDS011;8605;52.548;4.918;2023-07-13T16:21:42;5.15;;;2.63;;
16977;SDS011;8605;52.548;4.918;2023-07-13T16:26:48;3.15;;;1.92;;
16977;SDS011;8605;52.548;4.918;2023-07-13T16:31:55;5.75;;;2.60;;
16977;SDS011;8605;52.548;4.918;2023-07-13T16:36:59;7.15;;;2.42;;
16977;SDS011;8605;52.548;4.918;2023-07-13T16:42:08;4.33;;;2.20;;
16977;SDS011;8605;52.548;4.918;2023-07-13T16:47:12;3.90;;;2.28;;
16977;SDS011;8605;52.548;4.918;2023-07-13T16:52:17;3.23;;;2.20;;
16977;SDS011;8605;52.548;4.918;2023-07-13T16:57:24;5.70;;;3.22;;
16977;SDS011;8605;52.548;4.918;2023-07-13T17:02:31;9.40;;;2.67;;
16977;SDS011;8605;52.548;4.918;2023-07-13T17:07:37;5.90;;;3.47;;
16977;SDS011;8605;52.548;4.918;2023-07-13T17:12:42;3.72;;;2.63;;
16977;SDS011;8605;52.548;4.918;2023-07-13T17:17:45;5.53;;;2.03;;
16977;SDS011;8605;52.548;4.918;2023-07-13T17:22:51;4.77;;;2.67;;
16977;SDS011;8605;52.548;4.918;2023-07-13T17:27:56;8.82;;;2.55;;
16977;SDS011;8605;52.548;4.918;2023-07-13T17:32:59;4.57;;;2.42;;
16977;SDS011;8605;52.548;4.918;2023-07-13T17:38:03;6.53;;;3.08;;
16977;SDS011;8605;52.548;4.918;2023-07-13T17:43:08;8.18;;;3.40;;
16977;SDS011;8605;52.548;4.918;2023-07-13T17:48:12;6.60;;;2.50;;
16977;SDS011;8605;52.548;4.918;2023-07-13T17:53:16;7.43;;;2.92;;
16977;SDS011;8605;52.548;4.918;2023-07-13T17:58:23;4.90;;;2.22;;
16977;SDS011;8605;52.548;4.918;2023-07-13T18:03:27;9.68;;;3.13;;
16977;SDS011;8605;52.548;4.918;2023-07-13T18:08:34;6.40;;;3.07;;
16977;SDS011;8605;52.548;4.918;2023-07-13T18:13:39;8.00;;;3.13;;
16977;SDS011;8605;52.548;4.918;2023-07-13T18:18:42;11.02;;;2.55;;
16977;SDS011;8605;52.548;4.918;2023-07-13T18:23:46;6.97;;;2.72;;
16977;SDS011;8605;52.548;4.918;2023-07-13T18:28:52;9.63;;;2.70;;
16977;SDS011;8605;52.548;4.918;2023-07-13T18:33:55;5.38;;;2.33;;
16977;SDS011;8605;52.548;4.918;2023-07-13T18:38:59;6.43;;;2.20;;
16977;SDS011;8605;52.548;4.918;2023-07-13T18:44:04;6.18;;;2.40;;
16977;SDS011;8605;52.548;4.918;2023-07-13T18:49:08;5.55;;;2.15;;
16977;SDS011;8605;52.548;4.918;2023-07-13T18:54:13;6.38;;;2.00;;
16977;SDS011;8605;52.548;4.918;2023-07-13T18:59:18;6.50;;;2.10;;
16977;SDS011;8605;52.548;4.918;2023-07-13T19:04:28;8.90;;;2.00;;
16977;SDS011;8605;52.548;4.918;2023-07-13T19:09:33;4.83;;;2.03;;
16977;SDS011;8605;52.548;4.918;2023-07-13T19:14:37;7.53;;;2.40;;
16977;SDS011;8605;52.548;4.918;2023-07-13T19:19:40;6.50;;;2.20;;
16977;SDS011;8605;52.548;4.918;2023-07-13T19:24:44;7.20;;;2.85;;
16977;SDS011;8605;52.548;4.918;2023-07-13T19:29:48;7.85;;;2.33;;
16977;SDS011;8605;52.548;4.918;2023-07-13T19:34:52;5.90;;;2.30;;
16977;SDS011;8605;52.548;4.918;2023-07-13T19:39:56;6.93;;;2.30;;
16977;SDS011;8605;52.548;4.918;2023-07-13T19:45:01;7.18;;;2.40;;
16977;SDS011;8605;52.548;4.918;2023-07-13T19:50:06;5.47;;;2.35;;
16977;SDS011;8605;52.548;4.918;2023-07-13T19:55:11;7.73;;;2.27;;
16977;SDS011;8605;52.548;4.918;2023-07-13T20:00:19;3.33;;;1.87;;
16977;SDS011;8605;52.548;4.918;2023-07-13T20:05:24;7.85;;;2.22;;
16977;SDS011;8605;52.548;4.918;2023-07-13T20:10:28;10.20;;;2.80;;
16977;SDS011;8605;52.548;4.918;2023-07-13T20:15:33;5.72;;;1.73;;
16977;SDS011;8605;52.548;4.918;2023-07-13T20:20:37;10.20;;;2.13;;
16977;SDS011;8605;52.548;4.918;2023-07-13T20:25:44;4.13;;;1.90;;
16977;SDS011;8605;52.548;4.918;2023-07-13T20:30:50;7.63;;;2.20;;
16977;SDS011;8605;52.548;4.918;2023-07-13T20:35:56;5.38;;;1.83;;
16977;SDS011;8605;52.548;4.918;2023-07-13T20:41:04;3.92;;;1.60;;
16977;SDS011;8605;52.548;4.918;2023-07-13T20:46:10;7.22;;;1.80;;
16977;SDS011;8605;52.548;4.918;2023-07-13T20:51:16;6.85;;;2.00;;
16977;SDS011;8605;52.548;4.918;2023-07-13T20:56:20;5.07;;;1.90;;
16977;SDS011;8605;52.548;4.918;2023-07-13T21:01:28;5.72;;;1.63;;
16977;SDS011;8605;52.548;4.918;2023-07-13T21:06:33;8.50;;;1.98;;
16977;SDS011;8605;52.548;4.918;2023-07-13T21:11:36;3.13;;;1.70;;
16977;SDS011;8605;52.548;4.918;2023-07-13T21:16:42;7.18;;;2.10;;
16977;SDS011;8605;52.548;4.918;2023-07-13T21:21:45;5.68;;;1.77;;
16977;SDS011;8605;52.548;4.918;2023-07-13T21:26:48;6.68;;;2.05;;
16977;SDS011;8605;52.548;4.918;2023-07-13T21:31:52;7.15;;;2.13;;
16977;SDS011;8605;52.548;4.918;2023-07-13T21:36:56;3.30;;;1.70;;
16977;SDS011;8605;52.548;4.918;2023-07-13T21:42:01;5.90;;;1.73;;
16977;SDS011;8605;52.548;4.918;2023-07-13T21:47:08;3.93;;;1.90;;
16977;SDS011;8605;52.548;4.918;2023-07-13T21:52:14;4.17;;;1.60;;
16977;SDS011;8605;52.548;4.918;2023-07-13T21:57:18;4.68;;;1.85;;
16977;SDS011;8605;52.548;4.918;2023-07-13T22:02:23;2.97;;;1.50;;
16977;SDS011;8605;52.548;4.918;2023-07-13T22:07:29;7.03;;;2.10;;
16977;SDS011;8605;52.548;4.918;2023-07-13T22:12:34;11.93;;;2.47;;
16977;SDS011;8605;52.548;4.918;2023-07-13T22:17:41;4.40;;;1.50;;
16977;SDS011;8605;52.548;4.918;2023-07-13T22:22:48;5.93;;;1.67;;
16977;SDS011;8605;52.548;4.918;2023-07-13T22:27:51;4.95;;;1.75;;
16977;SDS011;8605;52.548;4.918;2023-07-13T22:32:56;4.18;;;1.83;;
16977;SDS011;8605;52.548;4.918;2023-07-13T22:38:00;4.53;;;2.10;;
16977;SDS011;8605;52.548;4.918;2023-07-13T22:43:07;6.03;;;1.88;;
16977;SDS011;8605;52.548;4.918;2023-07-13T22:48:19;4.35;;;1.67;;
16977;SDS011;8605;52.548;4.918;2023-07-13T22:53:24;5.20;;;1.80;;
16977;SDS011;8605;52.548;4.918;2023-07-13T22:58:28;9.00;;;2.70;;
16977;SDS011;8605;52.548;4.918;2023-07-13T23:03:33;7.03;;;2.20;;
16977;SDS011;8605;52.548;4.918;2023-07-13T23:08:37;8.37;;;2.90;;
16977;SDS011;8605;52.548;4.918;2023-07-13T23:13:40;7.03;;;2.20;;
16977;SDS011;8605;52.548;4.918;2023-07-13T23:18:45;7.38;;;2.13;;
16977;SDS011;8605;52.548;4.918;2023-07-13T23:23:49;6.93;;;2.55;;
16977;SDS011;8605;52.548;4.918;2023-07-13T23:28:53;9.07;;;2.92;;
16977;SDS011;8605;52.548;4.918;2023-07-13T23:33:59;5.07;;;2.40;;
16977;SDS011;8605;52.548;4.918;2023-07-13T23:39:08;7.28;;;2.13;;
16977;SDS011;8605;52.548;4.918;2023-07-13T23:44:14;8.00;;;2.60;;
16977;SDS011;8605;52.548;4.918;2023-07-13T23:49:21;3.27;;;2.17;;
16977;SDS011;8605;52.548;4.918;2023-07-13T23:54:26;7.73;;;2.70;;
16977;SDS011;8605;52.548;4.918;2023-07-13T23:59:32;4.10;;;2.25;;
